Sint-Oedenrode, Netherlands
Current Conditions -  °F | °C
As of 11:12 AM on Thursday 29 Jan 2015 (Local Time) from EHEH Reporting Station
Scattered Clouds Scattered Clouds  
Wind Chill: 29°   Ceiling: Unl
Heat Index: 39°   Visibility: 6mi
Dew Point: 34°   Wind: 22mph
Humidity: 81%   Direction: 220°SW
Pressure: 29.15"   Gusts: NA
Location:  51.57°N, 5.46°E
Report Text: EHEH 291012Z AUTO 22019KT 9999 FEW020 04/01 Q0987 BLU 22018G28KT 9999 FEW015 SCT030 TEMPO 4000 -SHRASN FEW020CB SCT030
Loading
Personal Weather Stations






























Interactive Weather Map New forecast layout! Learn more

10-Day Weather Forecast

Advertisements
Track Severe Weather on mobile